Queen City Park, Vermont
Current Conditions -  °F | °C
As of 4:54 PM on Saturday 25 Oct 2014 (Local Time) from KBTV Reporting Station
Overcast Overcast  
Wind Chill: 57°   Ceiling: 7500
Heat Index: 57°   Visibility: 10mi
Dew Point: 43°   Wind: 9mph
Humidity: 59%   Direction: 180°S
Pressure: 29.54"   Gusts: NA
Location:  44.446°N, 73.1725°W
Report Text: KBTV 252054Z 18008KT 10SM SCT060 BKN075 OVC100 14/06 A2954 RMK AO2 SLP005 T01390061 58022
Loading
Personal Weather Stations






























Interactive Weather Map
Tropical Storm Tracking
New forecast layout! Learn more

10-Day Weather Forecast

Advertisements
Track Severe Weather on mobile